BVSSKAGIT RGNL
METARs for airports near BVS, sorted by distance:
N 0 nm 145' KBVS 292235Z VRB06KT 10SM CLR 22/11 A2992
SW 11 nm 47' KNUW 292156Z 25010KT 10SM SCT080 BKN150 BKN240 16/09 A2998
N 19 nm 171' KBLI 292153Z VRB05KT 10SM CLR 21/11 A2991
SE 21 nm 141' KAWO 292156Z 30010KT 10SM FEW110 20/13 A2992
NW 24 nm 34' KORS 281715Z 33007KT 10SM 17/13 A3007
W 24 nm 112' KFHR 292153Z 22006KT 10SM CLR 19/11 A2992
S 34 nm 607' KPAE 292153Z VRB06G16KT 10SM SCT110 18/10 A2994
W 41 nm 64' CYYJ 292200Z 09007KT 30SM FEW130 SCT170 SCT210 BKN250 21/12 A2989
SW 44 nm 13' KNOW 292230Z 29019KT 10SM CLR A2994
SW 47 nm 291' KCLM 292153Z 30008G15KT 10SM CLR 16/09 A2996
NW 52 nm 14' CYVR 292200Z 29006KT 20SM SCT140 SCT220 BKN260 20/16 A2991
S 56 nm 21' KBFI 292153Z VRB06KT 10SM FEW100 BKN200 25/09 A2989
S 59 nm 32' KRNT 292153Z 33010KT 10SM CLR 24/11 A2989
S 60 nm 444' KPWT 292156Z 06006KT 10SM CLR 25/14 A2990
S 61 nm 432' KSEA 292153Z 36009KT 10SM SCT190 BKN250 26/10 A2990
NW 67 nm 92' CYCD 292200Z 35005KT 320V020 25SM SCT170 BKN240 22/13 A2991
S 72 nm 294' KTIW 292153Z 01006KT 10SM CLR 23/09 A2989
S 79 nm 272' KSHN 292153Z 26006KT 10SM CLR 26/11 A2986
S 80 nm 322' KTCM 292158Z 36007KT 10SM CLR 26/08 A2989
S 82 nm 537' KPLU 292235Z VRB04KT 10SM CLR 26/10 A2989
S 83 nm 301' KGRF 292158Z 30006KT 10SM FEW180 26/13 A2988
W 91 nm 193' KUIL 292153Z 31010KT 280V340 10SM CLR 17/09 A2999
S 92 nm 207' KOLM 292154Z 03006KT 10SM CLR 26/09 A2989
TAFs for airports near BVS, sorted by distance:
SW 11 nm 47' KNUW TAF KNUW 2915/3015 27010KT 9999 FEW050 SCT160 BKN250 QNH2997INS
  TEMPO 2915/2921 23006KT 9999 SCT050 BKN150 OVC250
  FM292100 26012KT 9999 FEW040 BKN012 BKN250 621009 QNH2989INS
  FM300200 29010KT 9999 VCSH FEW035 SCT100 BKN140 QNH2984INS
  TEMPO 3010/3015 26007KT 6000 -RA BR BKN030 OVC100 T17/292Z T08/3013Z FS30004
N 19 nm 171' KBLI TAF KBLI 291721Z 2918/3018 22010KT P6SM SCT150 BKN250
  FM300300 17005KT P6SM BKN150 BKN250
  FM301700 20011KT P6SM VCSH BKN060 OVC120
S 34 nm 607' KPAE KPAE 291721Z 2918/3018 33010KT P6SM SCT150 BKN250
  FM300600 03006KT P6SM BKN150 BKN250
  FM301700 34007KT P6SM VCSH BKN050 OVC100
SW 47 nm 291' KCLM KCLM 291721Z 2918/3018 29012KT P6SM SCT150 BKN250
  FM292200 30015G25KT P6SM BKN150 BKN250
  FM300600 30012KT P6SM BKN150 OVC250
  FM301700 29011KT P6SM VCSH BKN060 OVC100
S 56 nm 21' KBFI KBFI 291721Z 2918/3018 34008KT P6SM SCT150 BKN250
  FM300400 03005KT P6SM BKN150 BKN250
  FM301700 34007KT P6SM VCSH BKN060 OVC100
S 60 nm 444' KPWT TAF KPWT 291721Z 2918/3018 02007KT P6SM SCT150 BKN250
  FM300400 VRB03KT P6SM BKN150 BKN250
  FM301700 VRB04KT P6SM VCSH BKN050 OVC100
S 61 nm 432' KSEA KSEA 292100Z 2921/3024 35010KT P6SM SCT150 BKN250
  FM300400 02007KT P6SM BKN150 BKN250
  FM301700 35010KT P6SM VCSH BKN050 OVC100
  FM302200 35011KT 6SM -RA OVC030
S 80 nm 322' KTCM TAF KTCM 292100Z 2921/3103 VRB06KT 9999 FEW180 QNH2982INS
  BECMG 3003/3004 VRB06KT 9999 SCT160 BKN250 QNH2980INS
  BECMG 3014/3015 21009KT 8000 -SHRA BKN015 BKN030 QNH2975INS
  TEMPO 3015/3018 VCTS BKN015 BKN030CB
  BECMG 3100/3101 25010G15KT 9000 -RA BKN015 QNH2976INS TX28/2923Z TN12/3013Z
S 83 nm 301' KGRF TAF KGRF 292108Z 2921/3103 VRB06KT 9999 FEW180 QNH2982INS
  BECMG 3003/3004 VRB06KT 9999 SCT160 BKN250 QNH2980INS
  BECMG 3014/3015 21009KT 8000 -SHRA BKN015 BKN030 QNH2975INS
  TEMPO 3015/3018 VCTS BKN015 BKN030CB
  BECMG 3100/3101 25010G15KT 9000 -RA BKN015 QNH2976INS TX28/2923Z TN12/3013Z
S 92 nm 207' KOLM TAF KOLM 291721Z 2918/3018 36006KT P6SM SCT250
  FM300400 VRB04KT P6SM BKN150 BKN250
  FM301500 VRB05KT P6SM VCSH BKN050 OVC080

Shortcut to this page: http://wxbay.com.

Data may contain errors.